createdAt,value
2019-04-26T00:01:01.370Z,78.68
2019-04-26T00:03:42.819Z,78.30
2019-04-26T00:06:14.598Z,77.08
2019-04-26T00:08:48.854Z,76.94
2019-04-26T00:11:41.345Z,77.37
2019-04-26T00:14:45.954Z,77.32
2019-04-26T00:17:30.787Z,77.26
2019-04-26T00:20:02.930Z,78.57
2019-04-26T00:22:33.509Z,78.93
2019-04-26T00:25:04.092Z,79.54
2019-04-26T00:27:34.484Z,78.84
2019-04-26T00:30:04.864Z,78.86
2019-04-26T00:32:36.954Z,78.83
2019-04-26T00:35:07.541Z,78.83
2019-04-26T00:37:38.775Z,78.39
2019-04-26T00:40:09.135Z,78.55
2019-04-26T00:42:39.549Z,78.76
2019-04-26T00:45:09.659Z,79.48
2019-04-26T00:47:40.441Z,79.73
2019-04-26T00:50:10.834Z,80.28
2019-04-26T00:52:42.031Z,80.61
2019-04-26T00:55:14.123Z,80.51
2019-04-26T00:57:44.876Z,80.38
2019-04-26T01:00:18.178Z,79.87
2019-04-26T01:02:51.991Z,80.03
2019-04-26T01:05:23.051Z,79.72
2019-04-26T01:07:55.912Z,79.38
2019-04-26T01:10:26.207Z,80.25
2019-04-26T01:12:56.403Z,81.11
2019-04-26T01:15:26.678Z,83.34
2019-04-26T01:17:56.825Z,82.27
2019-04-26T01:20:28.774Z,81.26
2019-04-26T01:23:02.836Z,80.86
2019-04-26T01:25:41.577Z,81.37
2019-04-26T01:28:17.092Z,81.57
2019-04-26T01:30:48.335Z,81.64
2019-04-26T01:33:20.025Z,81.84
2019-04-26T01:35:51.423Z,82.14
2019-04-26T01:38:22.075Z,81.71
2019-04-26T01:40:54.600Z,82.18
2019-04-26T01:43:37.745Z,82.74
2019-04-26T01:46:15.928Z,83.35
2019-04-26T01:48:59.044Z,83.32
2019-04-26T01:51:34.896Z,82.67
2019-04-26T01:54:05.152Z,82.39
2019-04-26T01:56:36.888Z,83.44
2019-04-26T01:59:09.118Z,83.54
2019-04-26T02:02:10.227Z,83.21
2019-04-26T02:04:43.488Z,82.82
2019-04-26T02:07:15.396Z,82.30
2019-04-26T02:09:45.761Z,82.75
2019-04-26T02:12:16.218Z,83.04
2019-04-26T02:14:46.501Z,82.53
2019-04-26T02:17:16.604Z,82.27
2019-04-26T02:19:46.916Z,82.50
2019-04-26T02:22:25.914Z,82.41
2019-04-26T02:24:56.721Z,82.83
2019-04-26T02:27:28.931Z,83.24
2019-04-26T02:30:00.317Z,83.55
2019-04-26T02:32:32.871Z,83.34
2019-04-26T02:35:04.342Z,83.37
2019-04-26T02:37:36.905Z,83.48
2019-04-26T02:40:12.515Z,83.95
2019-04-26T02:42:43.129Z,83.57
2019-04-26T02:45:58.716Z,83.32
2019-04-26T02:49:11.833Z,83.82
2019-04-26T02:51:51.880Z,83.92
2019-04-26T02:54:46.828Z,82.91
2019-04-26T02:57:28.050Z,82.84
2019-04-26T03:00:06.220Z,83.14
2019-04-26T03:02:39.096Z,83.05
2019-04-26T03:05:12.105Z,83.91
2019-04-26T03:08:10.140Z,83.62
2019-04-26T03:11:21.280Z,83.67
2019-04-26T03:14:13.099Z,83.62
2019-04-26T03:16:57.959Z,84.70
2019-04-26T03:19:47.489Z,84.43
2019-04-26T03:22:48.080Z,84.06
2019-04-26T03:25:35.207Z,83.87
2019-04-26T03:28:19.637Z,84.08
2019-04-26T03:31:13.033Z,83.75
2019-04-26T03:34:12.129Z,83.94
2019-04-26T03:37:27.610Z,84.55
2019-04-26T03:40:19.036Z,84.94
2019-04-26T03:43:14.870Z,84.59
2019-04-26T03:46:00.460Z,84.79
2019-04-26T03:48:57.331Z,84.85
2019-04-26T03:52:05.930Z,85.03
2019-04-26T03:54:39.276Z,84.94
2019-04-26T03:57:27.062Z,85.18
2019-04-26T04:00:25.822Z,85.42
2019-04-26T04:03:26.775Z,85.67
2019-04-26T04:05:58.302Z,85.40
2019-04-26T04:08:48.221Z,85.45
2019-04-26T04:11:22.382Z,85.56
2019-04-26T04:14:10.592Z,85.99
2019-04-26T04:17:34.545Z,86.41
2019-04-26T04:21:14.056Z,87.00
2019-04-26T04:24:04.895Z,86.42
2019-04-26T04:27:04.761Z,85.76
2019-04-26T04:29:54.507Z,85.47
2019-04-26T04:33:01.340Z,85.80
2019-04-26T04:35:34.453Z,85.96
2019-04-26T04:38:18.077Z,85.83
2019-04-26T04:41:17.511Z,85.29
2019-04-26T04:44:01.386Z,85.37
2019-04-26T04:47:25.623Z,85.67
2019-04-26T04:50:25.257Z,85.63
2019-04-26T04:53:23.339Z,84.97
2019-04-26T04:56:31.726Z,84.50
2019-04-26T04:59:05.516Z,84.48
2019-04-26T05:02:08.531Z,85.24
2019-04-26T05:05:26.658Z,85.22
2019-04-26T05:08:21.911Z,85.34
2019-04-26T05:11:04.401Z,85.17
2019-04-26T05:13:43.761Z,85.01
2019-04-26T05:17:14.006Z,84.68
2019-04-26T05:20:25.413Z,84.21
2019-04-26T05:23:37.205Z,83.91
2019-04-26T05:27:12.361Z,83.69
2019-04-26T05:30:28.472Z,84.67
2019-04-26T05:33:36.276Z,84.76
2019-04-26T05:36:32.919Z,84.46
2019-04-26T05:39:41.397Z,84.11
2019-04-26T05:43:28.115Z,83.76
2019-04-26T05:46:53.892Z,83.58
2019-04-26T05:50:14.965Z,83.18
2019-04-26T05:53:20.670Z,82.63
2019-04-26T05:56:15.977Z,82.99
2019-04-26T05:58:59.796Z,82.60
2019-04-26T06:02:25.393Z,82.50
2019-04-26T06:05:32.679Z,82.93
2019-04-26T06:08:17.580Z,83.03
2019-04-26T06:10:55.914Z,82.75
2019-04-26T06:14:10.505Z,82.53
2019-04-26T06:17:27.602Z,83.28
2019-04-26T06:20:37.371Z,84.10
2019-04-26T06:23:46.966Z,84.76
2019-04-26T06:27:14.295Z,85.02
2019-04-26T06:29:56.592Z,84.31
2019-04-26T06:33:00.268Z,84.50
2019-04-26T06:35:28.499Z,83.92
2019-04-26T06:38:50.420Z,83.01
2019-04-26T06:41:58.861Z,83.04
2019-04-26T06:44:37.247Z,84.76
2019-04-26T06:47:32.820Z,85.19
2019-04-26T06:50:16.004Z,86.59
2019-04-26T06:52:59.845Z,86.50
2019-04-26T06:55:39.566Z,87.44
2019-04-26T06:58:30.021Z,88.80
2019-04-26T07:01:29.798Z,89.29
2019-04-26T07:04:43.276Z,89.30
2019-04-26T07:07:38.338Z,89.76
2019-04-26T07:10:19.693Z,90.05
2019-04-26T07:13:28.668Z,90.96
2019-04-26T07:16:22.819Z,91.21
2019-04-26T07:19:55.289Z,91.47
2019-04-26T07:23:15.253Z,91.68
2019-04-26T07:26:10.192Z,91.46
2019-04-26T07:29:09.313Z,91.38
2019-04-26T07:31:51.285Z,91.38
2019-04-26T07:34:55.895Z,91.79
2019-04-26T07:37:53.635Z,92.18
2019-04-26T07:40:52.645Z,92.20
2019-04-26T07:44:15.228Z,91.58
2019-04-26T07:47:30.103Z,91.08
2019-04-26T07:50:47.639Z,91.20
2019-04-26T07:53:48.671Z,91.01
2019-04-26T07:56:28.917Z,91.54
2019-04-26T07:59:42.669Z,90.79
2019-04-26T08:02:38.628Z,90.88
2019-04-26T08:05:26.802Z,90.42
2019-04-26T08:07:59.033Z,88.85
2019-04-26T08:10:31.464Z,88.19
2019-04-26T08:13:08.021Z,88.90
2019-04-26T08:16:01.798Z,89.06
2019-04-26T08:18:39.658Z,88.68
2019-04-26T08:21:26.143Z,88.15
2019-04-26T08:24:07.837Z,87.31
2019-04-26T08:26:39.928Z,87.41
2019-04-26T08:29:12.620Z,87.69
2019-04-26T08:31:44.852Z,86.32
2019-04-26T08:34:20.635Z,86.13
2019-04-26T08:37:01.919Z,87.30
2019-04-26T08:39:44.767Z,87.56
2019-04-26T08:42:12.072Z,86.32
2019-04-26T08:44:52.040Z,86.39
2019-04-26T08:47:30.530Z,85.10
2019-04-26T08:50:20.252Z,84.90
2019-04-26T08:52:51.663Z,85.07
2019-04-26T08:55:23.087Z,84.59
2019-04-26T08:57:55.032Z,83.62
2019-04-26T09:00:45.474Z,83.52
2019-04-26T09:03:32.540Z,82.93
2019-04-26T09:06:31.406Z,83.88
2019-04-26T09:09:04.066Z,82.53
2019-04-26T09:11:37.287Z,83.04
2019-04-26T09:14:09.482Z,83.31
2019-04-26T09:16:49.836Z,83.31
2019-04-26T09:19:12.112Z,82.80
2019-04-26T09:21:55.365Z,83.66
2019-04-26T09:24:41.392Z,84.17
2019-04-26T09:27:22.354Z,83.33
2019-04-26T09:30:06.702Z,84.08
2019-04-26T09:32:45.561Z,84.02
2019-04-26T09:35:16.438Z,82.96
2019-04-26T09:37:47.158Z,83.59
2019-04-26T09:40:21.556Z,83.77
2019-04-26T09:43:10.513Z,81.81
2019-04-26T09:46:02.058Z,82.20
2019-04-26T09:48:43.671Z,83.56
2019-04-26T09:51:14.192Z,82.90
2019-04-26T09:53:44.754Z,81.72
2019-04-26T09:56:15.400Z,82.31
2019-04-26T09:58:45.870Z,81.85
2019-04-26T10:01:19.662Z,81.43
2019-04-26T10:03:49.142Z,81.93
2019-04-26T10:06:19.411Z,81.18
2019-04-26T10:08:52.321Z,80.81
2019-04-26T10:11:24.160Z,80.87
2019-04-26T10:14:03.113Z,80.15
2019-04-26T10:16:52.766Z,81.45
2019-04-26T10:19:39.649Z,81.32
2019-04-26T10:22:10.118Z,81.51
2019-04-26T10:24:40.432Z,81.00
2019-04-26T10:27:11.515Z,80.43
2019-04-26T10:29:41.798Z,80.27
2019-04-26T10:32:12.130Z,82.25
2019-04-26T10:34:42.793Z,80.62
2019-04-26T10:37:14.471Z,81.10
2019-04-26T10:39:44.643Z,81.28
2019-04-26T10:42:14.890Z,81.40
2019-04-26T10:44:45.373Z,80.67
2019-04-26T10:47:16.061Z,81.75
2019-04-26T10:49:47.531Z,81.07
2019-04-26T10:52:24.797Z,82.55
2019-04-26T10:55:07.689Z,82.83
2019-04-26T10:57:40.106Z,82.75
2019-04-26T11:00:19.046Z,83.22
2019-04-26T11:02:49.429Z,81.52
2019-04-26T11:05:19.614Z,83.13
2019-04-26T11:07:49.929Z,82.05
2019-04-26T11:10:20.325Z,82.65
2019-04-26T11:12:50.842Z,81.30
2019-04-26T11:15:21.407Z,82.17
2019-04-26T11:17:52.225Z,82.83
2019-04-26T11:20:22.546Z,82.91
2019-04-26T11:23:08.227Z,82.82
2019-04-26T11:25:46.411Z,81.61
2019-04-26T11:28:36.970Z,80.10
2019-04-26T11:31:27.650Z,81.40
2019-04-26T11:34:19.073Z,81.43
2019-04-26T11:36:58.155Z,81.04
2019-04-26T11:39:50.283Z,81.36
2019-04-26T11:42:27.527Z,81.51
2019-04-26T11:45:19.400Z,81.16
2019-04-26T11:47:56.763Z,81.24
2019-04-26T11:50:48.252Z,81.44
2019-04-26T11:53:40.630Z,81.33
2019-04-26T11:56:17.552Z,81.40
2019-04-26T11:59:07.116Z,80.68
2019-04-26T12:01:44.169Z,80.42
2019-04-26T12:04:33.275Z,81.98
2019-04-26T12:07:19.736Z,81.71
2019-04-26T12:09:51.911Z,82.07
2019-04-26T12:12:22.598Z,78.98
2019-04-26T12:14:53.809Z,77.08
2019-04-26T12:17:26.877Z,77.77
2019-04-26T12:19:57.110Z,77.48
2019-04-26T12:22:27.552Z,73.72
2019-04-26T12:24:57.846Z,69.23
2019-04-26T12:27:30.699Z,69.58
2019-04-26T12:30:00.116Z,72.04
2019-04-26T12:32:30.478Z,70.03
2019-04-26T12:35:01.222Z,70.03
2019-04-26T12:37:32.662Z,71.79
2019-04-26T12:40:03.384Z,70.12
2019-04-26T12:42:34.148Z,69.97
2019-04-26T12:45:33.193Z,71.52
2019-04-26T12:48:07.985Z,69.83
2019-04-26T12:50:38.713Z,68.51
2019-04-26T12:53:12.499Z,69.76
2019-04-26T12:55:42.911Z,70.90
2019-04-26T12:58:16.376Z,74.29
2019-04-26T13:00:53.649Z,75.32
2019-04-26T13:03:20.747Z,74.73
2019-04-26T13:05:57.670Z,75.95
2019-04-26T13:08:23.729Z,76.26
2019-04-26T13:11:19.132Z,75.44
2019-04-26T13:14:17.668Z,74.55
2019-04-26T13:16:57.141Z,75.55
2019-04-26T13:19:27.186Z,76.02
2019-04-26T13:21:58.078Z,75.98
2019-04-26T13:24:28.639Z,76.20
2019-04-26T13:26:59.337Z,77.00
2019-04-26T13:29:31.188Z,75.55
2019-04-26T13:32:02.876Z,75.38
2019-04-26T13:34:37.176Z,76.50
2019-04-26T13:37:06.049Z,76.95
2019-04-26T13:39:36.467Z,75.54
2019-04-26T13:42:09.604Z,75.75
2019-04-26T13:45:10.401Z,75.57
2019-04-26T13:48:12.229Z,73.47
2019-04-26T13:50:50.417Z,73.07
2019-04-26T13:53:22.234Z,73.83
2019-04-26T13:55:52.854Z,73.41
2019-04-26T13:58:25.644Z,74.93
2019-04-26T14:00:57.433Z,74.94
2019-04-26T14:03:31.563Z,74.59
2019-04-26T14:06:00.413Z,76.01
2019-04-26T14:08:31.098Z,73.58
2019-04-26T14:11:01.600Z,72.83
2019-04-26T14:13:32.002Z,72.36
2019-04-26T14:16:04.617Z,73.54
2019-04-26T14:18:38.958Z,75.05
2019-04-26T14:21:08.440Z,73.39
2019-04-26T14:24:00.813Z,73.29
2019-04-26T14:26:39.856Z,73.09
2019-04-26T14:29:09.066Z,75.43
2019-04-26T14:31:39.585Z,76.24
2019-04-26T14:34:12.063Z,76.85
2019-04-26T14:36:43.831Z,76.98
2019-04-26T14:39:19.414Z,77.15
2019-04-26T14:41:47.097Z,77.85
2019-04-26T14:44:17.828Z,76.82
2019-04-26T14:46:49.381Z,75.23
2019-04-26T14:49:23.345Z,73.54
2019-04-26T14:51:56.056Z,74.28
2019-04-26T14:54:25.628Z,71.73
2019-04-26T14:56:59.736Z,71.23
2019-04-26T14:59:50.553Z,69.91
2019-04-26T15:02:43.314Z,68.94
2019-04-26T15:05:22.122Z,71.33
2019-04-26T15:07:53.797Z,69.42
2019-04-26T15:10:43.997Z,68.65
2019-04-26T15:13:17.000Z,68.29
2019-04-26T15:15:39.535Z,66.42
2019-04-26T15:18:09.833Z,62.48
2019-04-26T15:20:40.350Z,63.89
2019-04-26T15:23:10.838Z,65.97
2019-04-26T15:25:41.924Z,64.36
2019-04-26T15:28:14.639Z,66.59
2019-04-26T15:30:46.845Z,66.77
2019-04-26T15:33:17.583Z,66.45
2019-04-26T15:35:48.877Z,67.58
2019-04-26T15:38:19.188Z,66.62
2019-04-26T15:41:11.783Z,65.32
2019-04-26T15:43:58.045Z,67.02
2019-04-26T15:46:48.264Z,67.22
2019-04-26T15:49:36.879Z,67.08
2019-04-26T15:52:07.848Z,67.75
2019-04-26T15:54:38.282Z,67.72
2019-04-26T15:57:09.304Z,67.86
2019-04-26T15:59:43.447Z,65.68
2019-04-26T16:02:13.735Z,67.68
2019-04-26T16:04:47.487Z,68.14
2019-04-26T16:07:27.011Z,67.18
2019-04-26T16:09:49.374Z,67.14
2019-04-26T16:12:25.873Z,67.53
2019-04-26T16:14:52.479Z,67.83
2019-04-26T16:17:25.947Z,68.68
2019-04-26T16:20:00.075Z,67.81
2019-04-26T16:22:30.077Z,68.99
2019-04-26T16:25:04.016Z,67.98
2019-04-26T16:27:34.999Z,68.39
2019-04-26T16:30:32.947Z,69.72
2019-04-26T16:33:14.868Z,70.57
2019-04-26T16:35:45.641Z,73.37
2019-04-26T16:38:35.573Z,74.37
2019-04-26T16:41:06.592Z,75.05
2019-04-26T16:43:40.641Z,75.60
2019-04-26T16:46:12.561Z,75.87
2019-04-26T16:48:44.224Z,76.76
2019-04-26T16:51:14.408Z,78.07
2019-04-26T16:54:06.707Z,78.13
2019-04-26T16:56:36.987Z,77.85
2019-04-26T16:59:27.537Z,79.49
2019-04-26T17:02:04.556Z,80.85
2019-04-26T17:04:54.166Z,80.47
2019-04-26T17:07:31.107Z,80.59
2019-04-26T17:10:24.703Z,80.88
2019-04-26T17:13:15.202Z,82.79
2019-04-26T17:15:58.030Z,82.91
2019-04-26T17:18:44.527Z,82.35
2019-04-26T17:21:25.633Z,83.00
2019-04-26T17:24:19.620Z,84.83
2019-04-26T17:26:57.668Z,85.60
2019-04-26T17:29:28.009Z,85.79
2019-04-26T17:31:58.466Z,86.03
2019-04-26T17:34:30.263Z,87.32
2019-04-26T17:37:02.373Z,87.49
2019-04-26T17:39:32.733Z,87.83
2019-04-26T17:42:03.197Z,88.42
2019-04-26T17:44:34.293Z,88.84
2019-04-26T17:47:08.351Z,89.45
2019-04-26T17:49:39.163Z,89.82
2019-04-26T17:52:11.639Z,90.03
2019-04-26T17:54:47.571Z,91.11
2019-04-26T17:57:14.883Z,90.75
2019-04-26T17:59:48.873Z,90.95
2019-04-26T18:02:25.812Z,91.55
2019-04-26T18:05:00.199Z,92.07
2019-04-26T18:07:40.230Z,92.75
2019-04-26T18:09:57.054Z,93.03
2019-04-26T18:12:28.017Z,92.34
2019-04-26T18:15:00.086Z,92.59
2019-04-26T18:18:05.262Z,92.33
2019-04-26T18:21:00.914Z,92.28
2019-04-26T18:23:31.466Z,92.57
2019-04-26T18:26:03.288Z,92.76
2019-04-26T18:28:33.968Z,92.97
2019-04-26T18:31:07.613Z,92.98
2019-04-26T18:33:38.316Z,92.92
2019-04-26T18:36:09.915Z,93.25
2019-04-26T18:38:43.099Z,93.33
2019-04-26T18:41:13.649Z,93.62
2019-04-26T18:43:44.214Z,93.61
2019-04-26T18:46:24.090Z,93.67
2019-04-26T18:48:54.708Z,93.78
2019-04-26T18:51:25.033Z,94.15
2019-04-26T18:54:17.688Z,94.09
2019-04-26T18:56:51.179Z,94.13
2019-04-26T18:59:35.099Z,94.13
2019-04-26T19:02:35.028Z,94.38
2019-04-26T19:05:29.965Z,94.41
2019-04-26T19:08:07.598Z,94.49
2019-04-26T19:11:01.090Z,94.68
2019-04-26T19:14:06.331Z,94.52
2019-04-26T19:17:06.855Z,94.39
2019-04-26T19:20:04.246Z,94.48
2019-04-26T19:22:49.540Z,94.57
2019-04-26T19:25:38.672Z,94.85
2019-04-26T19:28:13.646Z,95.28
2019-04-26T19:30:52.803Z,95.30
2019-04-26T19:33:22.839Z,95.24
2019-04-26T19:35:53.156Z,94.76
2019-04-26T19:38:23.576Z,94.62
2019-04-26T19:40:54.078Z,94.83
2019-04-26T19:43:31.043Z,95.40
2019-04-26T19:46:17.097Z,95.84
2019-04-26T19:49:14.462Z,95.98
2019-04-26T19:52:03.849Z,96.08
2019-04-26T19:54:54.906Z,96.25
2019-04-26T19:57:42.755Z,96.05
2019-04-26T20:00:13.402Z,95.98
2019-04-26T20:02:44.376Z,95.83
2019-04-26T20:05:17.205Z,95.65
2019-04-26T20:07:46.871Z,95.29
2019-04-26T20:10:17.113Z,95.29
2019-04-26T20:12:47.368Z,95.29
2019-04-26T20:15:26.037Z,95.06
2019-04-26T20:17:59.222Z,95.17
2019-04-26T20:20:23.933Z,95.63
2019-04-26T20:22:54.785Z,95.86
2019-04-26T20:25:26.440Z,95.86
2019-04-26T20:27:59.830Z,96.02
2019-04-26T20:30:47.795Z,96.00
2019-04-26T20:33:18.644Z,96.05
2019-04-26T20:35:48.962Z,95.20
2019-04-26T20:38:19.572Z,94.72
2019-04-26T20:40:53.357Z,94.87
2019-04-26T20:43:26.398Z,95.22
2019-04-26T20:46:10.544Z,95.60
2019-04-26T20:48:30.307Z,95.79
2019-04-26T20:50:59.306Z,95.92
2019-04-26T20:53:30.864Z,95.88
2019-04-26T20:56:09.368Z,95.75
2019-04-26T20:58:37.464Z,95.70
2019-04-26T21:01:10.971Z,95.86
2019-04-26T21:03:42.843Z,95.91
2019-04-26T21:06:13.892Z,96.10
2019-04-26T21:08:44.156Z,96.32
2019-04-26T21:11:15.264Z,96.72
2019-04-26T21:13:45.742Z,97.23
2019-04-26T21:16:16.296Z,97.37
2019-04-26T21:18:46.775Z,97.39
2019-04-26T21:21:17.165Z,97.27
2019-04-26T21:23:49.469Z,97.38
2019-04-26T21:26:42.440Z,97.51
2019-04-26T21:29:44.615Z,97.49
2019-04-26T21:32:35.489Z,98.03
2019-04-26T21:35:09.668Z,97.75
2019-04-26T21:37:45.199Z,97.71
2019-04-26T21:40:26.275Z,97.70
2019-04-26T21:42:59.630Z,97.65
2019-04-26T21:45:31.064Z,97.68
2019-04-26T21:48:02.506Z,97.66
2019-04-26T21:50:38.650Z,97.68
2019-04-26T21:53:06.979Z,97.64
2019-04-26T21:55:38.688Z,97.33
2019-04-26T21:58:09.402Z,97.21
2019-04-26T22:00:58.399Z,97.20
2019-04-26T22:03:29.273Z,97.18
2019-04-26T22:05:59.834Z,97.50
2019-04-26T22:08:34.681Z,97.54
2019-04-26T22:11:05.244Z,98.04
2019-04-26T22:13:44.730Z,98.28
2019-04-26T22:16:38.149Z,98.80
2019-04-26T22:19:27.980Z,98.83
2019-04-26T22:22:08.277Z,98.72
2019-04-26T22:24:39.405Z,98.76
2019-04-26T22:27:09.754Z,98.98
2019-04-26T22:29:40.093Z,99.19
2019-04-26T22:32:15.071Z,98.89
2019-04-26T22:34:46.099Z,98.79
2019-04-26T22:37:28.889Z,98.84
2019-04-26T22:39:47.138Z,98.97
2019-04-26T22:42:18.609Z,98.88
2019-04-26T22:45:09.226Z,98.85
2019-04-26T22:47:54.669Z,98.83
2019-04-26T22:50:25.247Z,98.98
2019-04-26T22:52:55.933Z,99.11
2019-04-26T22:55:27.594Z,99.29
2019-04-26T22:57:58.339Z,99.28
2019-04-26T23:00:32.734Z,99.28
2019-04-26T23:03:07.169Z,99.30
2019-04-26T23:05:39.164Z,99.42
2019-04-26T23:08:07.817Z,99.55
2019-04-26T23:10:44.336Z,99.73
2019-04-26T23:13:33.893Z,99.80
2019-04-26T23:16:11.429Z,100.00
2019-04-26T23:19:00.817Z,100.00
2019-04-26T23:21:37.457Z,100.00
2019-04-26T23:24:11.514Z,100.00
2019-04-26T23:26:41.696Z,100.00
2019-04-26T23:29:17.468Z,100.00
2019-04-26T23:31:44.672Z,100.00
2019-04-26T23:34:15.076Z,100.00
2019-04-26T23:36:49.178Z,100.00
2019-04-26T23:39:17.545Z,100.00
2019-04-26T23:41:47.784Z,100.00
2019-04-26T23:44:18.019Z,100.00
2019-04-26T23:46:48.135Z,100.00
2019-04-26T23:49:20.508Z,100.00
2019-04-26T23:51:50.963Z,100.00
2019-04-26T23:54:21.484Z,100.00
2019-04-26T23:56:55.737Z,100.00
2019-04-26T23:59:24.860Z,100.00
